»·PEaware :: N333ZS KBFL-KMRY

N333ZS :: KBFL-KMRY

FLIGHT INFORMATION

Flight Status: Arrived
Operator: Privately registered:
United States
More flights under this callsign
Pilot: Judd H. (29974)
Aircraft: CESSNA 182 SKYLANE
(C182)
More flights by this aircraft type
Origin: KBFL Meadows
United States
Destination: KMRY Monterey Peninsula
United States
More flights between these airports :: More routes between these airports
Route:
File this flight plan on PilotEdge
Remarks:
Altitude:
(Current/Filed)
6,500ft
Speed:
(Current/Filed)
120kts
Departed: 15-Aug-20 08:28 PM
Arrived: 15-Aug-20 09:41 PM
Distance/Time
Traveled:
152nm/1:13
Distance/Time
To Go:
Arrived

Flight Plot

Page will automatically refresh every two minutes.

Flight plan parsing failed; only flown route is shown


Map Options




Map Legend


Flown Route
Filed Route
Departure Airport
Arrival Airport
Navaid (VOR, NDB)
Fix

Horizontal Profiles

Position Reports

Time Latitude Longitude Heading Altitude Ground
Speed
15-Aug-20 20:11 35.431420 -119.045075 0 510ft 0kts
15-Aug-20 20:12 35.431420 -119.045075 0 510ft 0kts
15-Aug-20 20:13 35.431420 -119.045075 0 510ft 0kts
15-Aug-20 20:14 35.431420 -119.045075 0 510ft 0kts
15-Aug-20 20:15 35.431420 -119.045075 0 510ft 0kts
15-Aug-20 20:16 35.431420 -119.045075 0 510ft 0kts
15-Aug-20 20:17 35.431421 -119.045075 0 510ft 0kts
15-Aug-20 20:18 35.431423 -119.045075 0 510ft 0kts
15-Aug-20 20:19 35.431424 -119.045075 0 510ft 0kts
15-Aug-20 20:20 35.431426 -119.045075 0 510ft 0kts
15-Aug-20 20:21 35.431525 -119.045250 232 510ft 0kts
15-Aug-20 20:23 35.430102 -119.046902 223 510ft 16kts
15-Aug-20 20:24 35.426301 -119.044830 134 510ft 17kts
15-Aug-20 20:25 35.425580 -119.044789 238 510ft 0kts
15-Aug-20 20:26 35.425579 -119.044791 238 510ft 0kts
15-Aug-20 20:27 35.425793 -119.046464 313 510ft 0kts
15-Aug-20 20:28 35.435955 -119.059090 314 762ft 109kts
15-Aug-20 20:29 35.458463 -119.087045 313 1747ft 119kts
15-Aug-20 20:30 35.473905 -119.121472 244 2508ft 130kts
15-Aug-20 20:31 35.453732 -119.155909 260 3314ft 131kts
15-Aug-20 20:32 35.461486 -119.197893 290 4043ft 128kts
15-Aug-20 20:33 35.473397 -119.239770 288 4634ft 128kts
15-Aug-20 20:34 35.483828 -119.278975 284 5457ft 119kts
15-Aug-20 20:35 35.492229 -119.318491 288 6172ft 120kts
15-Aug-20 20:36 35.500636 -119.359997 285 6608ft 134kts
15-Aug-20 20:37 35.511049 -119.408241 288 6478ft 149kts
15-Aug-20 20:38 35.522727 -119.456907 290 6478ft 148kts
15-Aug-20 20:38 35.533457 -119.496886 290 6478ft 148kts
15-Aug-20 20:40 35.548658 -119.552854 290 6479ft 148kts
15-Aug-20 20:41 35.561706 -119.600954 290 6479ft 148kts
15-Aug-20 20:41 35.571066 -119.640472 286 6463ft 140kts
15-Aug-20 20:42 35.581917 -119.686002 286 6435ft 138kts
15-Aug-20 20:43 35.592643 -119.731332 287 6429ft 138kts
15-Aug-20 20:45 35.604355 -119.784544 283 6425ft 139kts
15-Aug-20 20:45 35.609984 -119.824501 283 6440ft 143kts
15-Aug-20 20:46 35.618448 -119.872045 284 6457ft 141kts
15-Aug-20 20:47 35.628052 -119.919283 284 6449ft 146kts
15-Aug-20 20:48 35.631747 -119.969637 280 6474ft 149kts
15-Aug-20 20:49 35.640360 -120.019442 285 6483ft 149kts
15-Aug-20 20:50 35.647880 -120.069674 278 6481ft 150kts
15-Aug-20 20:51 35.651517 -120.120910 272 6482ft 150kts
15-Aug-20 20:52 35.652699 -120.172121 273 6482ft 150kts
15-Aug-20 20:53 35.653904 -120.223745 273 6482ft 150kts
15-Aug-20 20:54 35.656154 -120.274947 275 6483ft 150kts
15-Aug-20 20:55 35.658797 -120.326441 275 6484ft 150kts
15-Aug-20 20:56 35.663181 -120.377620 278 6484ft 150kts
15-Aug-20 20:57 35.666680 -120.428984 276 6484ft 151kts
15-Aug-20 20:58 35.667458 -120.480698 272 6484ft 151kts
15-Aug-20 20:59 35.668984 -120.532153 274 6477ft 150kts
15-Aug-20 21:00 35.670915 -120.583300 274 6500ft 148kts
15-Aug-20 21:01 35.679363 -120.631733 313 6507ft 146kts
15-Aug-20 21:02 35.709050 -120.665847 324 6507ft 145kts
15-Aug-20 21:03 35.741393 -120.695771 330 6505ft 145kts
15-Aug-20 21:04 35.775886 -120.722310 332 6507ft 145kts
15-Aug-20 21:05 35.811389 -120.746179 333 6507ft 145kts
15-Aug-20 21:06 35.847206 -120.770012 335 6509ft 145kts
15-Aug-20 21:07 35.879118 -120.800105 315 6511ft 147kts
15-Aug-20 21:08 35.904073 -120.840468 306 6511ft 148kts
15-Aug-20 21:09 35.931223 -120.878591 319 6513ft 147kts
15-Aug-20 21:10 35.963172 -120.910214 323 6514ft 147kts
15-Aug-20 21:11 35.995523 -120.941623 323 6516ft 147kts
15-Aug-20 21:12 36.027615 -120.973040 323 6516ft 148kts
15-Aug-20 21:13 36.059869 -121.004660 321 6517ft 150kts
15-Aug-20 21:14 36.093287 -121.037470 320 6528ft 154kts
15-Aug-20 21:15 36.127106 -121.070697 320 6527ft 155kts
15-Aug-20 21:16 36.160869 -121.103908 320 6528ft 155kts
15-Aug-20 21:17 36.195208 -121.137839 319 6530ft 153kts
15-Aug-20 21:18 36.227863 -121.169891 319 6537ft 148kts
15-Aug-20 21:19 36.260440 -121.202047 319 6539ft 148kts
15-Aug-20 21:20 36.292788 -121.234013 318 6541ft 149kts
15-Aug-20 21:21 36.325282 -121.266154 318 6540ft 149kts
15-Aug-20 21:22 36.357693 -121.298261 318 6540ft 149kts
15-Aug-20 21:23 36.390280 -121.330559 319 6539ft 149kts
15-Aug-20 21:24 36.423907 -121.363806 319 6204ft 158kts
15-Aug-20 21:25 36.458210 -121.397102 317 5800ft 151kts
15-Aug-20 21:26 36.490292 -121.430453 316 5522ft 153kts
15-Aug-20 21:27 36.521527 -121.463610 318 4990ft 142kts
15-Aug-20 21:28 36.551667 -121.494579 318 4468ft 138kts
15-Aug-20 21:29 36.582716 -121.522693 322 3968ft 137kts
15-Aug-20 21:30 36.614696 -121.547979 334 3472ft 136kts
15-Aug-20 21:31 36.625005 -121.585291 258 3054ft 130kts
15-Aug-20 21:32 36.616570 -121.627095 257 3031ft 121kts
15-Aug-20 21:33 36.601963 -121.662996 221 3054ft 121kts
15-Aug-20 21:34 36.573365 -121.685731 207 3063ft 122kts
15-Aug-20 21:35 36.547876 -121.712248 242 3059ft 118kts
15-Aug-20 21:36 36.553450 -121.744898 289 2082ft 96kts
15-Aug-20 21:37 36.563287 -121.775120 295 1508ft 95kts
15-Aug-20 21:38 36.573637 -121.805302 296 927ft 96kts
15-Aug-20 21:39 36.582953 -121.832437 296 289ft 76kts
15-Aug-20 21:40 36.586873 -121.846212 235 208ft 7kts
15-Aug-20 21:41 36.588301 -121.852155 289 208ft 6kts
15-Aug-20 21:42 36.588481 -121.852231 25 208ft 0kts
15-Aug-20 21:43 36.588481 -121.852231 25 208ft 0kts

Navigation Log

Ident Type
Flight plan parsing failed, navigation log unavailable